Time;durP1;ratioP1;P1;durP2;ratioP2;P2;SDS_P1;SDS_P2;PMS_P1;PMS_P2;Temp;Humidity;BMP_temperature;BMP_pressure;BME280_temperature;BME280_humidity;BME280_pressure;Samples;Min_cycle;Max_cycle;Signal;HPM_P1;HPM_P2
2021/03/09 00:01:40;;;;;;;48.90;25.30;;;8.50;99.90;;;;;;5127733;27;20217;-82
2021/03/09 00:04:05;;;;;;;49.97;25.77;;;8.60;99.90;;;;;;5126617;27;20559;-82
2021/03/09 00:06:31;;;;;;;53.17;25.83;;;8.50;99.90;;;;;;5093815;27;20184;-81
2021/03/09 00:08:57;;;;;;;52.50;26.33;;;8.50;99.90;;;;;;5107818;27;20300;-82
2021/03/09 00:11:22;;;;;;;56.27;26.93;;;8.60;99.90;;;;;;5128881;27;20198;-81
2021/03/09 00:13:48;;;;;;;49.83;24.97;;;8.60;99.90;;;;;;5096741;27;20210;-81
2021/03/09 00:16:14;;;;;;;51.30;26.20;;;8.60;99.90;;;;;;5114562;27;20184;-81
2021/03/09 00:18:39;;;;;;;49.77;26.10;;;8.60;99.90;;;;;;5116162;27;20224;-81
2021/03/09 00:21:05;;;;;;;45.93;25.53;;;8.60;99.90;;;;;;5115943;27;20184;-81
2021/03/09 00:23:31;;;;;;;47.67;26.13;;;8.60;99.90;;;;;;5113033;27;20182;-82
2021/03/09 00:25:56;;;;;;;49.23;26.00;;;8.60;99.90;;;;;;5108664;27;20726;-82
2021/03/09 00:28:22;;;;;;;52.10;26.73;;;8.60;99.90;;;;;;5100474;27;20691;-81
2021/03/09 00:30:48;;;;;;;47.93;25.73;;;8.60;99.90;;;;;;5113441;27;20678;-82
2021/03/09 00:33:14;;;;;;;54.17;26.43;;;8.60;99.90;;;;;;5104405;27;20210;-83
2021/03/09 00:35:40;;;;;;;50.10;25.87;;;8.60;99.90;;;;;;5107265;27;20550;-81
2021/03/09 00:38:05;;;;;;;52.43;26.30;;;8.60;99.90;;;;;;5109698;27;20188;-81
2021/03/09 00:40:31;;;;;;;48.53;24.10;;;8.60;99.90;;;;;;5115859;27;20236;-81
2021/03/09 00:42:57;;;;;;;48.93;24.90;;;8.70;99.90;;;;;;5112301;27;20294;-82
2021/03/09 00:45:22;;;;;;;51.07;24.93;;;8.70;99.90;;;;;;5116723;27;20647;-81
2021/03/09 00:47:48;;;;;;;51.47;26.00;;;8.70;99.90;;;;;;5096991;27;20554;-83
2021/03/09 00:50:14;;;;;;;49.40;25.97;;;8.60;99.90;;;;;;5094230;27;20174;-82
2021/03/09 00:52:40;;;;;;;43.77;23.83;;;8.60;99.90;;;;;;5095868;27;20218;-81
2021/03/09 00:55:06;;;;;;;51.67;24.90;;;8.60;99.90;;;;;;5107382;27;20248;-81
2021/03/09 00:57:32;;;;;;;46.90;24.03;;;8.50;99.90;;;;;;5118023;27;20193;-81
2021/03/09 00:59:58;;;;;;;48.03;25.60;;;8.50;99.90;;;;;;5107360;27;20180;-82
2021/03/09 01:02:24;;;;;;;48.50;24.93;;;8.60;99.90;;;;;;5133053;27;20207;-83
2021/03/09 01:04:49;;;;;;;51.07;24.73;;;8.50;99.90;;;;;;5096665;27;20209;-80
2021/03/09 01:07:15;;;;;;;44.10;23.57;;;8.40;99.90;;;;;;5110765;27;20174;-82
2021/03/09 01:09:41;;;;;;;45.60;23.20;;;8.50;99.90;;;;;;5108419;27;20219;-81
2021/03/09 01:12:07;;;;;;;48.03;24.47;;;8.40;99.90;;;;;;5101854;27;20598;-82
2021/03/09 01:14:32;;;;;;;44.40;23.60;;;8.30;99.90;;;;;;5131643;27;20650;-82
2021/03/09 01:16:58;;;;;;;45.70;23.77;;;8.20;99.90;;;;;;5097655;27;20187;-81
2021/03/09 01:19:24;;;;;;;45.70;23.53;;;8.30;99.90;;;;;;5126698;27;20184;-82
2021/03/09 01:21:49;;;;;;;51.10;24.93;;;8.00;99.90;;;;;;5104611;27;20195;-82
2021/03/09 01:24:15;;;;;;;50.87;24.73;;;7.90;99.90;;;;;;5110754;27;20239;-82
2021/03/09 01:26:41;;;;;;;47.93;25.30;;;7.90;99.90;;;;;;5110964;27;20228;-82
2021/03/09 01:29:06;;;;;;;50.43;24.10;;;7.90;99.90;;;;;;5100057;27;20208;-82
2021/03/09 01:31:32;;;;;;;47.63;24.93;;;7.90;99.90;;;;;;5124825;27;20209;-82
2021/03/09 01:33:58;;;;;;;50.60;25.13;;;8.00;99.90;;;;;;5093944;28;20256;-82
2021/03/09 01:36:23;;;;;;;50.17;24.93;;;7.90;99.90;;;;;;5126468;27;20183;-82
2021/03/09 01:38:49;;;;;;;51.37;26.03;;;7.90;99.90;;;;;;5126251;27;20178;-82
2021/03/09 01:41:15;;;;;;;52.07;26.13;;;7.90;99.90;;;;;;5111276;27;20193;-82
2021/03/09 01:43:40;;;;;;;49.17;25.70;;;8.00;99.90;;;;;;5098279;27;20180;-82
2021/03/09 01:46:06;;;;;;;53.33;26.17;;;7.90;99.90;;;;;;5105612;27;21009;-82
2021/03/09 01:48:42;;;;;;;50.90;25.70;;;8.00;99.90;;;;;;5102337;27;20182;-81
2021/03/09 01:51:09;;;;;;;54.57;25.30;;;8.00;99.90;;;;;;5102268;27;20189;-82
2021/03/09 01:53:35;;;;;;;53.47;25.87;;;8.00;99.90;;;;;;5132410;27;20183;-81
2021/03/09 01:56:01;;;;;;;49.60;25.83;;;8.00;99.90;;;;;;5093684;27;20201;-82
2021/03/09 01:58:29;;;;;;;52.97;26.87;;;8.00;99.90;;;;;;5126481;27;20253;-82
2021/03/09 02:00:55;;;;;;;46.13;24.27;;;8.00;99.90;;;;;;5106366;27;20253;-82
2021/03/09 02:03:21;;;;;;;47.80;24.30;;;7.90;99.90;;;;;;5122514;27;20297;-81
2021/03/09 02:05:47;;;;;;;50.53;25.83;;;7.90;99.90;;;;;;5114547;27;20246;-82
2021/03/09 02:08:13;;;;;;;51.70;26.57;;;7.90;99.90;;;;;;5122787;27;20182;-81
2021/03/09 02:10:38;;;;;;;54.33;26.67;;;7.90;99.90;;;;;;5097058;27;20253;-82
2021/03/09 02:13:47;;;;;;;55.50;26.90;;;7.90;99.90;;;;;;5108154;27;20173;-82
2021/03/09 02:16:33;;;;;;;48.63;24.03;;;7.90;99.90;;;;;;5066809;27;20280;-82
2021/03/09 02:19:39;;;;;;;48.90;25.00;;;7.80;99.90;;;;;;5106390;27;20919;-82
2021/03/09 02:22:39;;;;;;;51.20;25.43;;;7.80;99.90;;;;;;5121249;27;20210;-81
2021/03/09 02:25:29;;;;;;;49.47;25.03;;;7.80;99.90;;;;;;5098214;27;20231;-82
2021/03/09 02:28:23;;;;;;;50.50;24.73;;;7.70;99.90;;;;;;5095466;27;20191;-83
2021/03/09 02:30:50;;;;;;;52.37;25.90;;;7.60;99.90;;;;;;5101617;28;20626;-81
2021/03/09 02:33:20;;;;;;;49.87;24.27;;;7.50;99.90;;;;;;5110810;27;20314;-82
2021/03/09 02:36:00;;;;;;;52.23;24.93;;;7.50;99.90;;;;;;5100594;27;20273;-81
2021/03/09 02:38:31;;;;;;;51.63;25.70;;;7.60;99.90;;;;;;5104585;27;20177;-81
2021/03/09 02:41:00;;;;;;;51.03;25.03;;;7.50;99.90;;;;;;5111688;27;20209;-81
2021/03/09 02:43:28;;;;;;;48.70;24.63;;;7.50;99.90;;;;;;5112253;27;20210;-82
2021/03/09 02:45:56;;;;;;;47.23;24.00;;;7.50;99.90;;;;;;5091742;27;20288;-82
2021/03/09 02:48:23;;;;;;;50.30;24.47;;;7.50;99.90;;;;;;5109644;27;20245;-81
2021/03/09 02:50:53;;;;;;;47.67;25.13;;;7.50;99.90;;;;;;5096026;27;20260;-81
2021/03/09 02:53:19;;;;;;;48.23;24.83;;;7.50;99.90;;;;;;5099106;27;20224;-82
2021/03/09 02:55:48;;;;;;;50.10;25.00;;;7.50;99.90;;;;;;5095615;27;20287;-81
2021/03/09 02:58:17;;;;;;;48.90;24.20;;;7.50;99.90;;;;;;5107076;27;20177;-81
2021/03/09 03:00:44;;;;;;;48.43;25.37;;;7.30;99.90;;;;;;5098774;27;20195;-81
2021/03/09 03:03:13;;;;;;;51.13;25.07;;;7.30;99.90;;;;;;5096896;27;20209;-81
2021/03/09 03:05:40;;;;;;;50.43;24.30;;;7.30;99.90;;;;;;5107797;27;20178;-82
2021/03/09 03:08:09;;;;;;;50.07;24.67;;;7.30;99.90;;;;;;5109548;27;20215;-81
2021/03/09 03:10:36;;;;;;;50.57;24.80;;;7.30;99.90;;;;;;5105657;27;20701;-81
2021/03/09 03:13:06;;;;;;;49.20;24.40;;;7.30;99.90;;;;;;5089549;28;20261;-81
2021/03/09 03:15:33;;;;;;;56.93;27.40;;;7.40;99.90;;;;;;5107462;27;20189;-81
2021/03/09 03:18:00;;;;;;;53.60;25.83;;;7.40;99.90;;;;;;5107289;27;20761;-82
2021/03/09 03:20:26;;;;;;;48.77;24.73;;;7.40;99.90;;;;;;5106763;28;20170;-81
2021/03/09 03:22:54;;;;;;;52.60;25.63;;;7.40;99.90;;;;;;5105403;27;20237;-81
2021/03/09 03:25:21;;;;;;;45.30;24.17;;;7.40;99.90;;;;;;5108428;27;20170;-81
2021/03/09 03:27:49;;;;;;;47.50;24.63;;;7.30;99.90;;;;;;5108364;27;20165;-81
2021/03/09 03:30:16;;;;;;;50.60;25.60;;;7.30;99.90;;;;;;5122065;28;20181;-81
2021/03/09 03:32:42;;;;;;;53.13;25.83;;;7.30;99.90;;;;;;5112613;28;20214;-82
2021/03/09 03:35:11;;;;;;;48.57;24.30;;;7.40;99.90;;;;;;5107932;28;20194;-82
2021/03/09 03:37:39;;;;;;;50.00;24.93;;;7.40;99.90;;;;;;5112496;28;20181;-83
2021/03/09 03:40:09;;;;;;;49.93;25.70;;;7.40;99.90;;;;;;5097142;28;20727;-83
2021/03/09 03:42:36;;;;;;;50.97;25.23;;;7.50;99.90;;;;;;5107367;28;20254;-82
2021/03/09 03:45:02;;;;;;;51.60;25.03;;;7.50;99.90;;;;;;5111559;28;20602;-82
2021/03/09 03:47:28;;;;;;;51.07;25.43;;;7.60;99.90;;;;;;5108569;28;20180;-82
2021/03/09 03:49:54;;;;;;;52.47;25.60;;;7.50;99.90;;;;;;5097439;28;20643;-83
2021/03/09 03:52:31;;;;;;;49.67;25.13;;;7.50;99.90;;;;;;5096589;28;20188;-82
2021/03/09 03:55:12;;;;;;;49.77;25.00;;;7.50;99.90;;;;;;5123107;28;20544;-82
2021/03/09 03:57:47;;;;;;;47.70;24.57;;;7.60;99.90;;;;;;5099647;28;20704;-82
2021/03/09 04:00:18;;;;;;;50.53;25.63;;;7.60;99.90;;;;;;5091732;28;20208;-81
2021/03/09 04:02:52;;;;;;;49.87;25.00;;;7.60;99.90;;;;;;5107348;28;20205;-83
2021/03/09 04:05:21;;;;;;;50.03;26.07;;;7.70;99.90;;;;;;5106349;28;20201;-80
2021/03/09 04:07:49;;;;;;;49.30;25.37;;;7.70;99.90;;;;;;5105958;28;20206;-81
2021/03/09 04:10:15;;;;;;;51.43;26.63;;;7.50;99.90;;;;;;5121608;27;20274;-80
2021/03/09 04:12:43;;;;;;;50.73;25.83;;;7.50;99.90;;;;;;5105533;28;20194;-80
2021/03/09 04:15:10;;;;;;;52.33;25.90;;;7.50;99.90;;;;;;5108655;28;21556;-80
2021/03/09 04:17:38;;;;;;;51.77;26.03;;;7.50;99.90;;;;;;5103893;28;20183;-81
2021/03/09 04:20:07;;;;;;;51.67;26.00;;;7.50;99.90;;;;;;5108230;28;20185;-81
2021/03/09 04:22:34;;;;;;;56.60;27.33;;;7.50;99.90;;;;;;5115096;28;20250;-81
2021/03/09 04:25:00;;;;;;;55.73;27.87;;;7.40;99.90;;;;;;5103409;28;20192;-81
2021/03/09 04:27:26;;;;;;;53.43;26.17;;;7.30;99.90;;;;;;5089473;28;20174;-81
2021/03/09 04:29:56;;;;;;;54.03;26.63;;;7.30;99.90;;;;;;5089013;28;20189;-81
2021/03/09 04:32:24;;;;;;;52.57;26.47;;;7.30;99.90;;;;;;5128581;27;20194;-80
2021/03/09 04:34:51;;;;;;;53.80;26.80;;;7.20;99.90;;;;;;5098513;27;20182;-82
2021/03/09 04:37:17;;;;;;;59.67;27.97;;;7.10;99.90;;;;;;5109312;27;20185;-82
2021/03/09 04:39:44;;;;;;;62.13;27.80;;;7.10;99.90;;;;;;5134614;27;20179;-80
2021/03/09 04:42:11;;;;;;;61.47;28.17;;;7.20;99.90;;;;;;5111261;27;20209;-80
2021/03/09 04:44:37;;;;;;;59.13;27.93;;;7.20;99.90;;;;;;5094744;27;20511;-80
2021/03/09 04:47:03;;;;;;;54.70;28.00;;;7.20;99.90;;;;;;5129792;27;20169;-81
2021/03/09 04:49:32;;;;;;;55.90;28.17;;;7.20;99.90;;;;;;5108287;27;20194;-81
2021/03/09 04:51:58;;;;;;;62.37;29.77;;;7.10;99.90;;;;;;5099512;27;20174;-81
2021/03/09 04:54:24;;;;;;;54.50;27.53;;;7.10;99.90;;;;;;5095711;27;20549;-81
2021/03/09 04:56:50;;;;;;;59.63;29.13;;;7.20;99.90;;;;;;5109239;27;20322;-80
2021/03/09 04:59:16;;;;;;;58.60;29.93;;;7.20;99.90;;;;;;5096746;27;20185;-81
2021/03/09 05:01:41;;;;;;;59.60;27.97;;;7.20;99.90;;;;;;5104319;27;20206;-81
2021/03/09 05:04:07;;;;;;;56.67;29.10;;;7.20;99.90;;;;;;5092822;27;20649;-81
2021/03/09 05:06:33;;;;;;;61.77;29.90;;;7.10;99.90;;;;;;5095817;27;20190;-80
2021/03/09 05:08:58;;;;;;;57.93;29.43;;;7.20;99.90;;;;;;5112651;27;20201;-81
2021/03/09 05:11:24;;;;;;;59.00;28.90;;;7.20;99.90;;;;;;5116232;27;20642;-81
2021/03/09 05:13:50;;;;;;;63.77;30.43;;;7.20;99.90;;;;;;5095854;27;20687;-82
2021/03/09 05:16:16;;;;;;;60.70;30.53;;;7.20;99.90;;;;;;5108474;27;20181;-82
2021/03/09 05:18:41;;;;;;;59.93;29.20;;;7.10;99.90;;;;;;5110778;28;20174;-82
2021/03/09 05:21:07;;;;;;;59.23;28.97;;;7.20;99.90;;;;;;5108364;28;20646;-81
2021/03/09 05:23:33;;;;;;;62.50;30.27;;;7.00;99.90;;;;;;5095475;27;20197;-82
2021/03/09 05:25:58;;;;;;;62.00;29.70;;;6.90;99.90;;;;;;5122761;27;20667;-82
2021/03/09 05:28:24;;;;;;;62.17;30.50;;;6.90;99.90;;;;;;5131675;27;20220;-81
2021/03/09 05:30:49;;;;;;;65.27;30.43;;;7.00;99.90;;;;;;5098598;27;20261;-82
2021/03/09 05:33:15;;;;;;;61.77;29.77;;;7.00;99.90;;;;;;5096928;27;20250;-81
2021/03/09 05:35:41;;;;;;;63.30;29.87;;;6.90;99.90;;;;;;5112472;27;20186;-81
2021/03/09 05:38:06;;;;;;;63.83;29.80;;;6.90;99.90;;;;;;5094816;27;20186;-82
2021/03/09 05:40:32;;;;;;;63.47;30.67;;;6.90;99.90;;;;;;5115338;27;20173;-83
2021/03/09 05:42:58;;;;;;;59.13;29.87;;;6.90;99.90;;;;;;5112518;27;20801;-84
2021/03/09 05:45:24;;;;;;;64.63;31.20;;;6.90;99.90;;;;;;5093420;28;20170;-84
2021/03/09 05:47:51;;;;;;;62.77;31.07;;;6.80;99.90;;;;;;5111416;27;20260;-83
2021/03/09 05:50:17;;;;;;;66.03;31.67;;;6.80;99.90;;;;;;5115780;27;20186;-84
2021/03/09 05:52:42;;;;;;;59.70;30.17;;;6.90;99.90;;;;;;5098315;27;20175;-83
2021/03/09 05:55:10;;;;;;;62.53;29.97;;;6.90;99.90;;;;;;5099192;27;20529;-83
2021/03/09 05:57:36;;;;;;;65.47;31.37;;;6.80;99.90;;;;;;5109954;27;20193;-84
2021/03/09 06:00:05;;;;;;;64.17;30.73;;;6.70;99.90;;;;;;5091152;27;20657;-82
2021/03/09 06:02:37;;;;;;;60.80;30.60;;;6.60;99.90;;;;;;5112768;27;20192;-82
2021/03/09 06:05:05;;;;;;;60.80;30.83;;;6.60;99.90;;;;;;5108583;27;20176;-80
2021/03/09 06:07:30;;;;;;;63.70;31.10;;;6.70;99.90;;;;;;5109875;27;20525;-82
2021/03/09 06:09:56;;;;;;;64.70;30.73;;;6.70;99.90;;;;;;5092647;27;20283;-81
2021/03/09 06:12:24;;;;;;;66.90;31.40;;;6.80;99.90;;;;;;5128893;27;20182;-81
2021/03/09 06:14:58;;;;;;;66.00;31.60;;;6.90;99.90;;;;;;5093202;27;20195;-81
2021/03/09 06:17:25;;;;;;;64.57;30.77;;;7.00;99.90;;;;;;5096490;27;20196;-82
2021/03/09 06:19:52;;;;;;;68.93;32.13;;;6.90;99.90;;;;;;5122302;27;20230;-82
2021/03/09 06:22:18;;;;;;;65.97;31.77;;;7.00;99.90;;;;;;5096867;27;20225;-82
2021/03/09 06:24:46;;;;;;;68.67;31.87;;;7.00;99.90;;;;;;5113382;27;20185;-83
2021/03/09 06:27:26;;;;;;;60.23;30.40;;;7.00;99.90;;;;;;5092570;27;20622;-84
2021/03/09 06:29:52;;;;;;;62.23;30.57;;;7.10;99.90;;;;;;5095314;27;20185;-83
2021/03/09 06:32:18;;;;;;;63.10;29.67;;;7.20;99.90;;;;;;5106952;27;20663;-83
2021/03/09 06:34:44;;;;;;;66.40;30.73;;;7.30;99.90;;;;;;5096493;27;20197;-84
2021/03/09 06:37:11;;;;;;;60.93;29.17;;;7.40;99.90;;;;;;5106101;27;20205;-83
2021/03/09 06:39:54;;;;;;;69.80;31.10;;;7.40;99.90;;;;;;5096108;28;20176;-83
2021/03/09 06:42:38;;;;;;;65.17;29.00;;;7.30;99.90;;;;;;5106257;27;20882;-83
2021/03/09 06:45:09;;;;;;;62.20;29.23;;;7.30;99.90;;;;;;5097096;27;20190;-82
2021/03/09 06:47:37;;;;;;;65.40;29.23;;;7.30;99.90;;;;;;5107935;27;20312;-82
2021/03/09 06:50:06;;;;;;;63.37;29.90;;;7.30;99.90;;;;;;5110708;27;20584;-81
2021/03/09 06:52:31;;;;;;;64.20;30.70;;;7.40;99.90;;;;;;5095728;27;20591;-88
2021/03/09 06:54:57;;;;;;;65.33;30.33;;;7.60;99.90;;;;;;5103763;27;20165;-88
2021/03/09 06:57:23;;;;;;;62.23;28.93;;;7.60;99.90;;;;;;5095142;27;20197;-87
2021/03/09 06:59:52;;;;;;;59.13;29.30;;;7.60;99.90;;;;;;5113563;27;20174;-89
2021/03/09 07:02:29;;;;;;;62.50;30.47;;;7.60;99.90;;;;;;5096235;27;20267;-88
2021/03/09 07:05:09;;;;;;;60.03;29.57;;;7.70;99.90;;;;;;5109480;27;20185;-88
2021/03/09 07:07:40;;;;;;;61.23;29.07;;;7.80;99.90;;;;;;5104026;27;20904;-88
2021/03/09 07:10:07;;;;;;;59.53;28.67;;;7.90;99.90;;;;;;5087721;28;20262;-89
2021/03/09 07:12:34;;;;;;;60.23;27.90;;;8.00;99.90;;;;;;5075897;28;20202;-89
2021/03/09 07:15:00;;;;;;;54.73;28.17;;;8.10;99.90;;;;;;5088768;28;20263;-90
2021/03/09 07:17:31;;;;;;;59.83;29.20;;;8.10;99.90;;;;;;5084278;28;20188;-88
2021/03/09 07:19:58;;;;;;;60.57;28.77;;;8.20;99.90;;;;;;5093287;28;20191;-89
2021/03/09 07:22:25;;;;;;;57.37;29.00;;;8.10;99.90;;;;;;5091077;28;20210;-90
2021/03/09 07:25:08;;;;;;;57.20;28.50;;;8.20;99.90;;;;;;5084595;28;20191;-89
2021/03/09 07:28:03;;;;;;;60.93;29.10;;;8.20;99.90;;;;;;5102420;28;20179;-89
2021/03/09 07:30:35;;;;;;;57.27;28.40;;;8.20;99.90;;;;;;5103655;28;20191;-89
2021/03/09 07:33:01;;;;;;;60.30;29.50;;;8.20;99.90;;;;;;5092891;28;20190;-88
2021/03/09 07:35:28;;;;;;;54.50;28.03;;;8.30;99.90;;;;;;5094230;28;20209;-88
2021/03/09 07:37:54;;;;;;;59.93;29.73;;;8.20;99.90;;;;;;5104723;28;20186;-88
2021/03/09 07:40:32;;;;;;;55.67;28.10;;;8.20;99.90;;;;;;5093646;28;20206;-88
2021/03/09 07:42:58;;;;;;;61.83;29.63;;;8.30;99.90;;;;;;5090828;28;20545;-89
2021/03/09 07:45:30;;;;;;;63.43;29.20;;;8.40;99.90;;;;;;5111540;28;20200;-88
2021/03/09 07:47:59;;;;;;;57.63;28.50;;;8.50;99.90;;;;;;5091163;28;20175;-88
2021/03/09 07:50:33;;;;;;;57.47;29.17;;;8.60;99.90;;;;;;5079632;28;20542;-87
2021/03/09 07:52:59;;;;;;;54.80;28.10;;;8.70;99.90;;;;;;5096150;28;20263;-88
2021/03/09 07:55:28;;;;;;;57.17;28.37;;;8.60;99.90;;;;;;5079364;28;20214;-88
2021/03/09 07:58:17;;;;;;;55.67;29.10;;;8.60;99.90;;;;;;5078645;28;20182;-89
2021/03/09 08:00:49;;;;;;;58.00;28.07;;;8.60;99.90;;;;;;5095647;28;20203;-89
2021/03/09 08:03:23;;;;;;;59.43;28.97;;;8.70;99.90;;;;;;5074828;28;20595;-87
2021/03/09 08:05:56;;;;;;;58.37;28.20;;;8.70;99.90;;;;;;5091675;28;20171;-88
2021/03/09 08:08:54;;;;;;;55.87;29.37;;;8.70;99.90;;;;;;5075727;28;20194;-88
2021/03/09 08:11:19;;;;;;;59.63;28.87;;;8.80;99.90;;;;;;5088613;27;20246;-86
2021/03/09 08:14:03;;;;;;;58.43;29.17;;;8.90;99.90;;;;;;5081698;27;20238;-88
2021/03/09 08:16:33;;;;;;;59.87;29.07;;;9.00;99.90;;;;;;5098275;28;20269;-87
2021/03/09 08:19:12;;;;;;;59.30;30.43;;;9.10;99.90;;;;;;5080328;28;20206;-88
2021/03/09 08:21:56;;;;;;;59.70;29.70;;;9.10;99.90;;;;;;5092475;28;20232;-88
2021/03/09 08:24:42;;;;;;;59.70;29.43;;;9.20;99.90;;;;;;5093444;28;20183;-87
2021/03/09 08:27:36;;;;;;;53.50;29.40;;;9.30;99.90;;;;;;5078739;28;20186;-87
2021/03/09 08:30:07;;;;;;;55.60;29.03;;;9.30;99.90;;;;;;5093214;28;20178;-87
2021/03/09 08:32:38;;;;;;;56.30;28.07;;;9.30;99.90;;;;;;5078825;28;20196;-90
2021/03/09 08:35:13;;;;;;;56.73;28.97;;;9.40;99.90;;;;;;5082442;27;20702;-89
2021/03/09 08:37:40;;;;;;;56.27;29.60;;;9.40;99.90;;;;;;5079583;27;20197;-89
2021/03/09 08:40:12;;;;;;;57.87;30.03;;;9.40;99.90;;;;;;5079545;28;20653;-88
2021/03/09 08:43:03;;;;;;;55.33;28.63;;;9.40;99.90;;;;;;5095315;28;20213;-89
2021/03/09 08:45:39;;;;;;;56.60;29.77;;;9.20;99.90;;;;;;5084119;28;20175;-88
2021/03/09 08:48:05;;;;;;;60.17;31.37;;;9.20;99.90;;;;;;5095531;27;20238;-88
2021/03/09 08:50:38;;;;;;;60.93;31.13;;;9.10;99.90;;;;;;5093535;28;20221;-88
2021/03/09 08:53:04;;;;;;;56.00;30.07;;;8.90;99.90;;;;;;5090001;28;20184;-89
2021/03/09 08:55:30;;;;;;;61.43;31.23;;;9.00;99.90;;;;;;5082021;28;20190;-89
2021/03/09 08:57:56;;;;;;;60.27;30.17;;;8.80;99.90;;;;;;5081695;28;20192;-89
2021/03/09 09:00:22;;;;;;;63.93;31.57;;;8.80;99.90;;;;;;5083450;28;20186;-87
2021/03/09 09:02:49;;;;;;;63.97;30.83;;;8.90;99.90;;;;;;5087832;28;20701;-88
2021/03/09 09:05:15;;;;;;;59.90;30.93;;;8.90;99.90;;;;;;5075869;28;20175;-88
2021/03/09 09:07:43;;;;;;;59.77;30.70;;;9.10;99.90;;;;;;5088861;27;20217;-88
2021/03/09 09:10:22;;;;;;;62.07;30.47;;;9.30;99.90;;;;;;5070380;28;20269;-88
2021/03/09 09:12:56;;;;;;;58.33;29.73;;;9.40;99.90;;;;;;5085749;28;20200;-88
2021/03/09 09:15:32;;;;;;;65.03;31.27;;;9.50;99.90;;;;;;5090181;28;20695;-87
2021/03/09 09:18:02;;;;;;;64.63;32.50;;;9.60;99.90;;;;;;5086694;28;20616;-88
2021/03/09 09:20:33;;;;;;;62.93;31.83;;;9.70;99.90;;;;;;5080527;28;20191;-88
2021/03/09 09:23:18;;;;;;;59.83;31.83;;;9.80;99.90;;;;;;5091171;28;20197;-87
2021/03/09 09:26:02;;;;;;;63.17;31.53;;;9.70;99.90;;;;;;5072645;28;20248;-87
2021/03/09 09:28:33;;;;;;;67.07;33.57;;;9.60;99.90;;;;;;5102905;28;20254;-88
2021/03/09 09:31:19;;;;;;;64.23;32.67;;;9.50;99.90;;;;;;5090476;28;20179;-87
2021/03/09 09:33:49;;;;;;;64.77;33.37;;;9.50;99.90;;;;;;5088415;28;20195;-88
2021/03/09 09:36:15;;;;;;;64.47;32.30;;;9.60;99.90;;;;;;5090748;28;20576;-88
2021/03/09 09:38:41;;;;;;;65.80;33.50;;;9.40;99.90;;;;;;5073511;27;20239;-88
2021/03/09 09:41:06;;;;;;;67.90;33.30;;;9.60;99.90;;;;;;5073953;28;20183;-87
2021/03/09 09:43:33;;;;;;;66.13;32.40;;;9.80;99.90;;;;;;5087647;27;20688;-87
2021/03/09 09:46:04;;;;;;;70.87;34.07;;;10.10;99.90;;;;;;5109488;28;20184;-87
2021/03/09 09:48:32;;;;;;;59.30;31.70;;;10.30;99.90;;;;;;5076284;28;20237;-87
2021/03/09 09:51:03;;;;;;;57.87;31.77;;;10.30;99.90;;;;;;5092325;28;20660;-88
2021/03/09 09:53:33;;;;;;;56.97;30.33;;;10.50;99.90;;;;;;5089876;28;20187;-87
2021/03/09 09:56:10;;;;;;;60.80;32.97;;;10.50;99.90;;;;;;5074671;28;20248;-87
2021/03/09 09:58:56;;;;;;;65.53;32.90;;;10.70;99.90;;;;;;5080967;28;20195;-88
2021/03/09 10:01:38;;;;;;;57.03;30.43;;;11.20;99.90;;;;;;5095926;28;20184;-87
2021/03/09 10:04:05;;;;;;;58.97;30.43;;;11.40;99.90;;;;;;5089887;28;20562;-88
2021/03/09 10:06:38;;;;;;;74.40;32.60;;;11.20;99.90;;;;;;5078616;28;20190;-88
2021/03/09 10:09:24;;;;;;;58.83;32.17;;;11.10;99.90;;;;;;5076823;28;20183;-87
2021/03/09 10:11:59;;;;;;;62.17;31.63;;;11.00;99.90;;;;;;5075431;28;20985;-87
2021/03/09 10:14:32;;;;;;;58.70;31.60;;;10.90;99.90;;;;;;5073939;27;20181;-88
2021/03/09 10:16:58;;;;;;;63.60;31.63;;;11.20;99.90;;;;;;5099083;28;20247;-88
2021/03/09 10:19:33;;;;;;;58.10;30.67;;;11.50;99.90;;;;;;5071978;28;20178;-88
2021/03/09 10:21:58;;;;;;;58.90;31.10;;;11.70;99.90;;;;;;5074811;27;20683;-88
2021/03/09 10:24:28;;;;;;;53.17;29.83;;;11.50;99.90;;;;;;5074252;28;20188;-88
2021/03/09 10:26:54;;;;;;;56.33;31.80;;;11.30;99.90;;;;;;5073389;28;20276;-88
2021/03/09 10:29:22;;;;;;;52.23;30.80;;;11.30;99.90;;;;;;5080713;28;20186;-88
2021/03/09 10:31:55;;;;;;;58.00;32.03;;;11.20;99.90;;;;;;5072353;28;20716;-88
2021/03/09 10:34:48;;;;;;;54.03;31.93;;;11.30;99.90;;;;;;5074515;28;20177;-88
2021/03/09 10:37:15;;;;;;;54.67;30.47;;;11.60;99.90;;;;;;5074188;28;20200;-89
2021/03/09 10:39:58;;;;;;;55.97;31.10;;;12.00;99.90;;;;;;5071500;28;20194;-88
2021/03/09 10:42:32;;;;;;;46.27;28.23;;;12.60;99.90;;;;;;5093129;28;20196;-88
2021/03/09 10:45:19;;;;;;;51.43;29.57;;;12.80;99.90;;;;;;5072471;28;20198;-88
2021/03/09 10:47:59;;;;;;;50.47;28.63;;;12.50;99.90;;;;;;5074432;28;20242;-87
2021/03/09 10:50:38;;;;;;;47.43;27.67;;;12.60;99.90;;;;;;5090748;28;20296;-88
2021/03/09 10:53:03;;;;;;;45.97;26.83;;;12.50;99.90;;;;;;5076433;28;20183;-87
2021/03/09 10:55:29;;;;;;;54.73;29.40;;;12.30;99.90;;;;;;5080296;28;20229;-88
2021/03/09 10:57:55;;;;;;;53.27;29.13;;;12.10;99.90;;;;;;5076298;28;20181;-88
2021/03/09 11:00:22;;;;;;;46.90;27.90;;;12.00;99.90;;;;;;5076136;28;20194;-87
2021/03/09 11:02:48;;;;;;;52.23;29.77;;;11.90;99.90;;;;;;5078387;28;20319;-88
2021/03/09 11:05:14;;;;;;;47.33;28.10;;;11.80;99.90;;;;;;5074169;28;20186;-88
2021/03/09 11:07:41;;;;;;;46.33;27.60;;;11.50;99.90;;;;;;5078435;28;20185;-88
2021/03/09 11:10:10;;;;;;;45.60;27.60;;;11.30;99.90;;;;;;5074315;28;20256;-88
2021/03/09 11:12:36;;;;;;;48.73;28.40;;;11.30;99.90;;;;;;5074551;28;20184;-86
2021/03/09 11:15:04;;;;;;;49.33;27.03;;;11.10;99.90;;;;;;5077643;28;21063;-88
2021/03/09 11:17:29;;;;;;;45.40;27.07;;;10.70;99.90;;;;;;5073655;28;20674;-89
2021/03/09 11:19:55;;;;;;;43.10;25.87;;;10.70;99.90;;;;;;5075049;28;20170;-88
2021/03/09 11:22:21;;;;;;;42.23;25.47;;;10.80;99.90;;;;;;5073600;28;20632;-88
2021/03/09 11:24:47;;;;;;;44.87;26.27;;;11.10;99.90;;;;;;5088073;28;20200;-88
2021/03/09 11:27:13;;;;;;;41.57;25.43;;;11.40;99.90;;;;;;5087596;28;20264;-88
2021/03/09 11:29:40;;;;;;;43.87;26.07;;;11.40;99.90;;;;;;5075802;28;20251;-89
2021/03/09 11:32:06;;;;;;;42.77;25.00;;;11.70;99.90;;;;;;5076436;28;20269;-88
2021/03/09 11:34:32;;;;;;;38.90;24.07;;;12.10;99.90;;;;;;5074938;28;20197;-87
2021/03/09 11:36:58;;;;;;;38.47;24.23;;;12.60;99.90;;;;;;5075959;28;20193;-88
2021/03/09 11:39:24;;;;;;;39.27;23.57;;;13.10;99.90;;;;;;5078583;28;20193;-88
2021/03/09 11:41:54;;;;;;;36.53;22.67;;;13.40;99.90;;;;;;5073176;28;20201;-89
2021/03/09 11:44:20;;;;;;;34.47;21.60;;;13.20;99.90;;;;;;5075924;28;20221;-89
2021/03/09 11:46:47;;;;;;;29.53;18.80;;;13.00;99.90;;;;;;5087159;28;20173;-89
2021/03/09 11:49:13;;;;;;;31.47;20.40;;;12.50;99.90;;;;;;5078252;28;20198;-88
2021/03/09 11:51:39;;;;;;;28.90;16.40;;;12.30;99.90;;;;;;5076970;28;20187;-88
2021/03/09 11:54:05;;;;;;;27.20;16.63;;;11.90;99.90;;;;;;5088962;28;20194;-88
2021/03/09 11:56:32;;;;;;;27.37;16.80;;;11.50;99.90;;;;;;5076578;28;20205;-88
2021/03/09 11:58:58;;;;;;;26.50;16.40;;;11.40;99.90;;;;;;5087778;28;20694;-88
2021/03/09 12:01:24;;;;;;;25.53;16.87;;;11.20;99.90;;;;;;5090442;28;20180;-88
2021/03/09 12:03:50;;;;;;;28.90;17.43;;;11.10;99.90;;;;;;5073822;28;20213;-88
2021/03/09 12:06:18;;;;;;;28.17;17.83;;;11.00;99.90;;;;;;5092354;28;20310;-88
2021/03/09 12:08:43;;;;;;;31.17;18.30;;;10.90;99.90;;;;;;5073671;28;20184;-88
2021/03/09 12:11:09;;;;;;;34.20;20.27;;;10.60;99.90;;;;;;5064324;28;20578;-87
2021/03/09 12:13:37;;;;;;;32.63;19.93;;;10.40;99.90;;;;;;5088239;28;20187;-88
2021/03/09 12:16:04;;;;;;;32.57;19.57;;;10.30;99.90;;;;;;5100689;28;20188;-88
2021/03/09 12:18:30;;;;;;;33.33;20.57;;;10.10;99.90;;;;;;5091521;28;20193;-87
2021/03/09 12:20:56;;;;;;;34.63;20.43;;;10.00;99.90;;;;;;5090581;28;20183;-87
2021/03/09 12:23:23;;;;;;;34.10;20.93;;;10.10;99.90;;;;;;5101487;28;20324;-88
2021/03/09 12:25:50;;;;;;;36.67;22.10;;;10.20;99.90;;;;;;5092026;28;20169;-87
2021/03/09 12:28:16;;;;;;;32.60;19.93;;;10.30;99.90;;;;;;5093663;28;20243;-87
2021/03/09 12:30:41;;;;;;;36.03;21.27;;;10.20;99.90;;;;;;5087656;28;20189;-88
2021/03/09 12:33:07;;;;;;;37.23;21.30;;;10.20;99.90;;;;;;5085035;28;20185;-88
2021/03/09 12:35:33;;;;;;;35.33;22.30;;;10.30;99.90;;;;;;5098091;28;20242;-88
2021/03/09 12:37:58;;;;;;;39.03;22.70;;;10.40;99.90;;;;;;5089595;28;20187;-87
2021/03/09 12:40:24;;;;;;;35.87;22.10;;;10.50;99.90;;;;;;5102837;28;20184;-87
2021/03/09 12:42:50;;;;;;;36.00;22.80;;;10.60;99.90;;;;;;5088373;28;20196;-88
2021/03/09 12:45:15;;;;;;;40.50;25.17;;;10.70;99.90;;;;;;5086678;28;20645;-88
2021/03/09 12:47:41;;;;;;;44.03;25.83;;;10.60;99.90;;;;;;5085412;28;20271;-88